Time;durP1;ratioP1;P1;durP2;ratioP2;P2;SDS_P1;SDS_P2;PMS_P1;PMS_P2;Temp;Humidity;BMP_temperature;BMP_pressure;BME280_temperature;BME280_humidity;BME280_pressure;Samples;Min_cycle;Max_cycle;Signal;HPM_P1;HPM_P2
2022/06/19 00:00:17;;;;;;;0.50;0.40;;;;;;;16.27;100.00;95756.78;5093073;28;20460;-59
2022/06/19 00:02:47;;;;;;;0.80;0.70;;;;;;;16.29;100.00;95765.31;5093113;28;20466;-59
2022/06/19 00:05:16;;;;;;;0.60;0.40;;;;;;;16.49;100.00;95771.09;5093407;28;20456;-59
2022/06/19 00:07:45;;;;;;;0.50;0.30;;;;;;;16.74;100.00;95766.41;5093261;28;20871;-59
2022/06/19 00:10:15;;;;;;;0.40;0.30;;;;;;;16.81;100.00;95767.59;5092356;28;20504;-59
2022/06/19 00:12:43;;;;;;;0.47;0.40;;;;;;;16.69;100.00;95769.97;5092865;28;20425;-59
2022/06/19 00:15:12;;;;;;;2.03;1.50;;;;;;;16.38;100.00;95768.91;5092873;28;20452;-59
2022/06/19 00:17:41;;;;;;;0.53;0.33;;;;;;;16.33;100.00;95772.47;5092668;28;20499;-59
2022/06/19 00:20:11;;;;;;;0.40;0.30;;;;;;;15.83;100.00;95727.84;5092786;28;20446;-59
2022/06/19 00:22:40;;;;;;;0.83;0.83;;;;;;;16.26;100.00;95788.09;5092983;28;20419;-59
2022/06/19 00:25:09;;;;;;;0.40;0.30;;;;;;;16.40;100.00;95790.78;5092692;28;20460;-59
2022/06/19 00:27:39;;;;;;;0.40;0.30;;;;;;;16.16;100.00;95734.00;5092662;28;20464;-59
2022/06/19 00:30:10;;;;;;;0.40;0.30;;;;;;;16.58;100.00;95779.28;5092271;28;20481;-59
2022/06/19 00:32:39;;;;;;;0.60;0.50;;;;;;;16.35;100.00;95732.03;5092079;28;20455;-59
2022/06/19 00:35:08;;;;;;;0.40;0.30;;;;;;;16.65;100.00;95777.00;5092894;28;20444;-59
2022/06/19 00:37:37;;;;;;;0.40;0.30;;;;;;;16.20;100.00;95703.69;5092218;28;20464;-59
2022/06/19 00:40:08;;;;;;;0.67;0.63;;;;;;;16.65;100.00;95777.00;5092270;28;20420;-59
2022/06/19 00:42:41;;;;;;;0.50;0.33;;;;;;;16.64;100.00;95771.94;5092112;28;20473;-59
2022/06/19 00:45:29;;;;;;;0.50;0.40;;;;;;;15.90;100.00;95768.38;5092340;28;20477;-59
2022/06/19 00:47:58;;;;;;;0.60;0.40;;;;;;;15.87;100.00;95764.38;5092444;28;20432;-59
2022/06/19 00:50:29;;;;;;;0.40;0.30;;;;;;;16.17;100.00;95763.09;5092597;28;20428;-59
2022/06/19 00:52:59;;;;;;;0.47;0.30;;;;;;;16.16;100.00;95769.56;5092321;28;20429;-59
2022/06/19 00:55:30;;;;;;;0.40;0.30;;;;;;;16.34;100.00;95768.69;5091848;28;20507;-59
2022/06/19 00:58:05;;;;;;;0.40;0.30;;;;;;;16.06;100.00;95763.56;5092320;28;20464;-59
2022/06/19 01:00:33;;;;;;;0.50;0.40;;;;;;;15.63;100.00;95768.25;5091659;28;20423;-59
2022/06/19 01:03:07;;;;;;;0.50;0.40;;;;;;;15.82;100.00;95764.47;5092517;28;20459;-59
2022/06/19 01:05:37;;;;;;;0.60;0.33;;;;;;;15.93;100.00;95762.44;5092113;28;20455;-59
2022/06/19 01:08:06;;;;;;;0.50;0.50;;;;;;;16.18;100.00;95769.25;5092251;28;20511;-59
2022/06/19 01:10:38;;;;;;;0.40;0.40;;;;;;;15.76;100.00;95714.84;5091888;28;20482;-59
2022/06/19 01:13:08;;;;;;;0.50;0.30;;;;;;;15.76;100.00;95724.75;5092074;28;20428;-59
2022/06/19 01:15:38;;;;;;;0.50;0.40;;;;;;;16.10;100.00;95762.69;5092099;28;20452;-59
2022/06/19 01:18:09;;;;;;;0.50;0.40;;;;;;;16.08;100.00;95770.22;5091905;28;21031;-59
2022/06/19 01:20:40;;;;;;;0.57;0.50;;;;;;;16.10;100.00;95772.59;5091937;28;20503;-58
2022/06/19 01:23:14;;;;;;;0.50;0.40;;;;;;;16.24;100.00;95762.75;5092009;28;20459;-58
2022/06/19 01:25:45;;;;;;;0.50;0.30;;;;;;;15.95;100.00;95770.94;5091779;28;20907;-58
2022/06/19 01:31:05;;;;;;;0.53;0.53;;;;;;;16.27;100.00;95770.16;5091878;28;20424;-58
2022/06/19 01:33:39;;;;;;;0.87;0.30;;;;;;;16.21;100.00;95764.13;5091784;28;20424;-58
2022/06/19 01:36:10;;;;;;;0.60;0.50;;;;;;;16.26;100.00;95766.72;5091872;28;20448;-58
2022/06/19 01:38:39;;;;;;;0.50;0.30;;;;;;;16.21;100.00;95757.97;5091373;28;20594;-58
2022/06/19 01:41:15;;;;;;;0.60;0.50;;;;;;;15.80;100.00;95766.66;5091824;28;20481;-58
2022/06/19 01:43:43;;;;;;;0.50;0.30;;;;;;;15.69;100.00;95773.22;5094362;28;20481;-58
2022/06/19 01:46:12;;;;;;;0.77;0.77;;;;;;;15.77;100.00;95767.22;5095563;28;20424;-58
2022/06/19 01:48:40;;;;;;;0.40;0.20;;;;;;;15.58;100.00;95769.13;5095713;28;20412;-58
2022/06/19 01:51:09;;;;;;;0.83;0.83;;;;;;;15.67;100.00;95754.00;5095638;28;20448;-58
2022/06/19 01:53:42;;;;;;;0.47;0.30;;;;;;;15.56;100.00;95768.59;5095448;28;20466;-58
2022/06/19 01:56:13;;;;;;;0.50;0.50;;;;;;;15.71;100.00;95740.88;5095514;28;20460;-58
2022/06/19 01:58:48;;;;;;;1.13;0.43;;;;;;;16.01;100.00;95763.66;5095496;28;20971;-58
2022/06/19 02:01:16;;;;;;;1.90;1.23;;;;;;;16.08;100.00;95759.53;5095584;28;20424;-58
2022/06/19 02:03:48;;;;;;;0.40;0.30;;;;;;;16.15;100.00;95759.94;5095209;28;20923;-58
2022/06/19 02:06:20;;;;;;;0.40;0.30;;;;;;;16.02;100.00;95762.53;5095366;28;20428;-58
2022/06/19 02:08:50;;;;;;;0.50;0.30;;;;;;;15.94;100.00;95761.34;5095682;28;20495;-58
2022/06/19 02:11:22;;;;;;;1.63;1.23;;;;;;;16.00;100.00;95757.50;5095322;28;20421;-58
2022/06/19 02:13:50;;;;;;;0.40;0.30;;;;;;;15.85;100.00;95763.91;5095240;28;20885;-58
2022/06/19 02:16:22;;;;;;;0.50;0.40;;;;;;;16.06;100.00;95760.91;5095347;28;20947;-58
2022/06/19 02:18:53;;;;;;;0.40;0.20;;;;;;;16.10;100.00;95773.38;5094974;28;20478;-58
2022/06/19 02:21:34;;;;;;;0.40;0.20;;;;;;;16.12;100.00;95776.56;5094550;28;20421;-58
2022/06/19 02:24:02;;;;;;;0.50;0.40;;;;;;;16.01;100.00;95772.47;5094729;28;20424;-58
2022/06/19 02:26:32;;;;;;;0.40;0.30;;;;;;;16.07;100.00;95773.97;5095222;28;20434;-58
2022/06/19 02:29:01;;;;;;;0.40;0.30;;;;;;;15.98;100.00;95781.06;5095179;28;20450;-58
2022/06/19 02:31:30;;;;;;;0.40;0.27;;;;;;;15.97;100.00;95779.47;5094758;28;20527;-58
2022/06/19 02:34:04;;;;;;;0.60;0.47;;;;;;;15.98;100.00;95791.78;5094528;28;20935;-58
2022/06/19 02:36:39;;;;;;;0.40;0.30;;;;;;;15.82;100.00;95783.19;5094753;28;20923;-58
2022/06/19 02:39:30;;;;;;;0.40;0.30;;;;;;;15.57;100.00;95785.41;5094844;28;20888;-58
2022/06/19 02:42:07;;;;;;;0.40;0.30;;;;;;;15.80;100.00;95788.03;5094690;28;20499;-58
2022/06/19 02:44:38;;;;;;;0.40;0.20;;;;;;;15.94;100.00;95785.41;5094850;28;20452;-58
2022/06/19 02:47:08;;;;;;;0.40;0.30;;;;;;;15.75;100.00;95787.31;5094815;28;20471;-58
2022/06/19 02:49:37;;;;;;;0.40;0.33;;;;;;;15.45;100.00;95801.88;5094735;28;20427;-58
2022/06/19 02:52:07;;;;;;;0.40;0.30;;;;;;;15.44;100.00;95802.94;5094487;28;20432;-58
2022/06/19 02:54:36;;;;;;;0.40;0.30;;;;;;;15.66;100.00;95789.06;5093760;28;20475;-58
2022/06/19 02:57:08;;;;;;;0.60;0.40;;;;;;;15.74;100.00;95796.41;5094318;28;20520;-58
2022/06/19 02:59:36;;;;;;;0.40;0.30;;;;;;;15.10;100.00;95739.00;5094228;28;20478;-58
2022/06/19 03:02:05;;;;;;;1.90;1.13;;;;;;;15.44;100.00;95791.44;5094176;28;20417;-58
2022/06/19 03:04:36;;;;;;;0.40;0.30;;;;;;;15.38;100.00;95781.94;5093969;28;20428;-58
2022/06/19 03:07:05;;;;;;;0.40;0.20;;;;;;;15.35;100.00;95787.84;5094376;28;20424;-59
2022/06/19 03:09:33;;;;;;;0.60;0.50;;;;;;;15.27;100.00;95784.72;5093034;28;20462;-59
2022/06/19 03:12:02;;;;;;;0.97;0.63;;;;;;;15.02;100.00;95790.38;5093627;28;20508;-58
2022/06/19 03:14:32;;;;;;;0.83;0.83;;;;;;;15.39;100.00;95789.66;5094535;28;20494;-57
2022/06/19 03:17:00;;;;;;;0.40;0.30;;;;;;;15.58;100.00;95789.69;5094289;28;20428;-57
2022/06/19 03:19:29;;;;;;;0.50;0.30;;;;;;;15.72;100.00;95779.84;5094012;28;20538;-57
2022/06/19 03:21:57;;;;;;;0.40;0.30;;;;;;;15.28;100.00;95735.56;5093764;28;20456;-57
2022/06/19 03:24:26;;;;;;;0.40;0.30;;;;;;;15.72;100.00;95774.50;5093737;28;20421;-57
2022/06/19 03:26:55;;;;;;;0.70;0.70;;;;;;;15.81;100.00;95776.22;5094118;28;20836;-57
2022/06/19 03:29:23;;;;;;;0.53;0.30;;;;;;;15.94;100.00;95780.06;5093927;28;20421;-57
2022/06/19 03:31:53;;;;;;;0.50;0.30;;;;;;;16.05;100.00;95778.81;5093754;28;20893;-57
2022/06/19 03:34:22;;;;;;;0.50;0.50;;;;;;;15.92;100.00;95765.38;5093635;28;20512;-57
2022/06/19 03:36:51;;;;;;;0.97;0.60;;;;;;;15.70;100.00;95784.72;5093850;28;20421;-57
2022/06/19 03:39:19;;;;;;;0.40;0.30;;;;;;;15.72;100.00;95783.34;5093700;28;20496;-57
2022/06/19 03:41:48;;;;;;;0.50;0.47;;;;;;;15.30;100.00;95787.91;5093458;28;20538;-57
2022/06/19 03:44:16;;;;;;;1.00;0.40;;;;;;;15.56;100.00;95784.63;5093727;28;20458;-57
2022/06/19 03:46:45;;;;;;;0.40;0.30;;;;;;;15.85;100.00;95781.81;5093199;28;20420;-57
2022/06/19 03:49:15;;;;;;;0.83;0.83;;;;;;;15.95;100.00;95770.94;5093589;28;20504;-57
2022/06/19 03:51:44;;;;;;;0.40;0.30;;;;;;;16.12;100.00;95783.78;5093594;28;20565;-57
2022/06/19 03:54:12;;;;;;;0.80;0.40;;;;;;;16.24;100.00;95782.22;5092954;28;20503;-57
2022/06/19 03:56:41;;;;;;;0.50;0.33;;;;;;;16.32;100.00;95789.59;5093435;28;20521;-57
2022/06/19 03:59:12;;;;;;;0.57;0.50;;;;;;;16.22;100.00;95791.63;5092965;28;20460;-57
2022/06/19 04:01:42;;;;;;;0.50;0.50;;;;;;;16.36;100.00;95785.25;5093075;28;20523;-57
2022/06/19 04:04:12;;;;;;;1.07;0.30;;;;;;;16.10;100.00;95743.97;5092989;28;20424;-57
2022/06/19 04:06:43;;;;;;;0.40;0.20;;;;;;;16.37;100.00;95786.81;5092518;28;20452;-57
2022/06/19 04:09:14;;;;;;;0.70;0.70;;;;;;;15.54;100.00;95655.09;5093263;28;20469;-57
2022/06/19 04:11:43;;;;;;;0.50;0.33;;;;;;;16.44;100.00;95781.13;5093232;28;20798;-57
2022/06/19 04:14:13;;;;;;;0.50;0.30;;;;;;;16.55;100.00;95785.22;5092828;28;20487;-57
2022/06/19 04:16:42;;;;;;;0.40;0.30;;;;;;;16.44;100.00;95767.72;5093099;28;20448;-58
2022/06/19 04:19:12;;;;;;;0.40;0.30;;;;;;;16.58;100.00;95783.81;5092598;28;20468;-58
2022/06/19 04:21:44;;;;;;;0.60;0.40;;;;;;;16.23;100.00;95727.16;5092649;28;20459;-57
2022/06/19 04:24:15;;;;;;;0.40;0.20;;;;;;;16.88;100.00;95785.94;5092619;28;20854;-58
2022/06/19 04:26:43;;;;;;;0.70;0.30;;;;;;;15.88;100.00;95653.72;5092645;28;20856;-58
2022/06/19 04:29:13;;;;;;;0.70;0.60;;;;;;;16.99;100.00;95787.34;5092900;28;20444;-59
2022/06/19 04:31:42;;;;;;;0.60;0.50;;;;;;;17.15;100.00;95784.03;5092699;28;20499;-58
2022/06/19 04:34:10;;;;;;;0.57;0.57;;;;;;;17.31;100.00;95784.53;5092221;28;20429;-58
2022/06/19 04:36:39;;;;;;;1.00;0.50;;;;;;;17.47;100.00;95780.44;5092367;28;20428;-58
2022/06/19 04:39:10;;;;;;;0.50;0.40;;;;;;;17.58;100.00;95778.38;5092462;28;20891;-59
2022/06/19 04:41:43;;;;;;;0.50;0.50;;;;;;;17.75;100.00;95782.00;5092594;28;20857;-60
2022/06/19 04:44:13;;;;;;;0.50;0.30;;;;;;;17.88;100.00;95782.25;5092429;28;20429;-60
2022/06/19 04:46:42;;;;;;;0.50;0.30;;;;;;;18.01;100.00;95776.81;5092541;28;20481;-60
2022/06/19 04:49:14;;;;;;;0.47;0.30;;;;;;;17.59;100.00;95697.66;5092239;28;20928;-60
2022/06/19 04:51:43;;;;;;;0.43;0.33;;;;;;;18.19;100.00;95775.06;5092308;28;20446;-60
2022/06/19 04:54:13;;;;;;;0.40;0.30;;;;;;;18.26;100.00;95776.22;5092060;28;20500;-61
2022/06/19 04:56:42;;;;;;;0.40;0.30;;;;;;;18.31;100.00;95775.31;5092059;28;20489;-61
2022/06/19 04:59:10;;;;;;;0.50;0.33;;;;;;;17.31;100.00;95784.53;5092319;28;20548;-61
2022/06/19 05:01:40;;;;;;;0.40;0.30;;;;;;;16.72;100.00;95742.59;5092299;28;20466;-61
2022/06/19 05:04:12;;;;;;;0.50;0.30;;;;;;;17.28;100.00;95785.13;5092250;28;20447;-62
2022/06/19 05:06:41;;;;;;;0.50;0.40;;;;;;;17.66;100.00;95788.34;5092013;28;20464;-62
2022/06/19 05:09:10;;;;;;;0.40;0.30;;;;;;;17.96;100.00;95781.53;5092010;28;20423;-62
2022/06/19 05:11:40;;;;;;;0.50;0.30;;;;;;;17.82;100.00;95780.75;5091461;28;20452;-63
2022/06/19 05:14:08;;;;;;;0.40;0.30;;;;;;;17.26;100.00;95784.63;5091998;28;21083;-64
2022/06/19 05:16:37;;;;;;;1.57;0.40;;;;;;;17.23;100.00;95795.94;5092565;28;20471;-63
2022/06/19 05:19:05;;;;;;;0.90;0.40;;;;;;;17.84;100.00;95784.72;5096041;28;20495;-63
2022/06/19 05:21:34;;;;;;;0.50;0.40;;;;;;;18.36;100.00;95783.22;5097102;28;20524;-64
2022/06/19 05:24:02;;;;;;;1.03;0.40;;;;;;;18.55;100.00;95775.78;5098253;28;20420;-64
2022/06/19 05:26:32;;;;;;;0.50;0.40;;;;;;;18.95;100.00;95780.06;5100842;28;20860;-65
2022/06/19 05:29:04;;;;;;;0.40;0.30;;;;;;;19.32;100.00;95775.28;5104116;28;20419;-66
2022/06/19 05:31:34;;;;;;;0.50;0.30;;;;;;;18.95;100.00;95761.25;5103524;28;20454;-65
2022/06/19 05:34:03;;;;;;;0.40;0.30;;;;;;;18.94;100.00;95775.00;5099746;28;20424;-67
2022/06/19 05:36:39;;;;;;;0.53;0.40;;;;;;;19.15;100.00;95775.25;5097957;28;20443;-67
2022/06/19 05:39:09;;;;;;;0.70;0.70;;;;;;;18.14;100.00;95695.47;5099240;28;20467;-67
2022/06/19 05:41:39;;;;;;;0.70;0.67;;;;;;;18.77;100.00;95774.94;5096804;28;20989;-67
2022/06/19 05:44:11;;;;;;;0.60;0.53;;;;;;;19.23;100.00;95775.25;5096021;28;20447;-67
2022/06/19 05:46:41;;;;;;;0.80;0.67;;;;;;;19.37;100.00;95724.09;5095680;28;20420;-66
2022/06/19 05:49:10;;;;;;;0.50;0.50;;;;;;;19.48;100.00;95701.94;5095978;28;20504;-65
2022/06/19 05:51:39;;;;;;;0.77;0.77;;;;;;;20.07;100.00;95764.94;5095368;28;20459;-65
2022/06/19 05:54:07;;;;;;;1.23;0.40;;;;;;;20.49;100.00;95770.59;5095243;28;20510;-64
2022/06/19 05:56:35;;;;;;;0.70;0.47;;;;;;;19.80;100.00;95764.47;5095178;28;20458;-64
2022/06/19 05:59:04;;;;;;;0.50;0.40;;;;;;;20.02;100.00;95767.78;5095502;28;20519;-62
2022/06/19 06:01:34;;;;;;;0.50;0.47;;;;;;;20.07;100.00;95761.44;5095347;28;20920;-67
2022/06/19 06:04:04;;;;;;;0.80;0.70;;;;;;;20.33;100.00;95766.81;5095768;28;20444;-70
2022/06/19 06:06:33;;;;;;;0.47;0.40;;;;;;;20.31;100.00;95779.81;5095410;28;20909;-68
2022/06/19 06:09:02;;;;;;;1.37;0.63;;;;;;;20.88;100.00;95773.00;5094716;28;20420;-64
2022/06/19 06:11:31;;;;;;;0.40;0.30;;;;;;;21.26;100.00;95765.72;5095322;28;20430;-65
2022/06/19 06:13:59;;;;;;;0.50;0.40;;;;;;;21.12;100.00;95767.06;5095044;28;20458;-64
2022/06/19 06:16:28;;;;;;;0.50;0.50;;;;;;;21.18;100.00;95765.75;5094895;28;20456;-65
2022/06/19 06:18:59;;;;;;;0.63;0.50;;;;;;;21.23;100.00;95758.28;5095308;28;20425;-64
2022/06/19 06:21:28;;;;;;;1.23;0.77;;;;;;;20.85;100.00;95749.41;5098578;28;20440;-67
2022/06/19 06:23:58;;;;;;;1.10;1.03;;;;;;;20.28;100.00;95740.88;5097428;28;20443;-62
2022/06/19 06:26:29;;;;;;;0.70;0.70;;;;;;;20.74;100.00;95761.66;5095823;28;20524;-62
2022/06/19 06:28:59;;;;;;;0.50;0.30;;;;;;;21.35;100.00;95757.59;5094176;28;20429;-63
2022/06/19 06:31:28;;;;;;;0.70;0.47;;;;;;;22.25;100.00;95760.56;5094886;28;20452;-61
2022/06/19 06:33:59;;;;;;;0.40;0.30;;;;;;;21.36;100.00;95721.41;5095023;28;20424;-61
2022/06/19 06:36:28;;;;;;;0.50;0.40;;;;;;;21.17;100.00;95740.72;5094667;28;20420;-61
2022/06/19 06:39:00;;;;;;;0.93;0.50;;;;;;;21.47;100.00;95754.97;5095662;28;20470;-61
2022/06/19 06:41:28;;;;;;;0.50;0.30;;;;;;;22.22;100.00;95761.22;5094854;28;20475;-62
2022/06/19 06:43:57;;;;;;;0.53;0.43;;;;;;;22.61;100.00;95753.38;5095583;28;20424;-62
2022/06/19 06:46:27;;;;;;;0.73;0.73;;;;;;;23.01;100.00;95740.06;5093232;28;20503;-61
2022/06/19 06:49:02;;;;;;;0.50;0.40;;;;;;;23.52;100.00;95735.88;5093961;28;20436;-60
2022/06/19 06:51:34;;;;;;;0.60;0.60;;;;;;;23.44;100.00;95698.91;5097234;28;20484;-61
2022/06/19 06:54:04;;;;;;;0.47;0.33;;;;;;;23.64;93.76;95737.75;5092307;28;20490;-61
2022/06/19 06:56:39;;;;;;;0.40;0.30;;;;;;;24.06;93.49;95735.50;5097894;28;20539;-61
2022/06/19 06:59:12;;;;;;;0.60;0.60;;;;;;;24.39;90.54;95736.03;5093967;28;20412;-61
2022/06/19 07:01:41;;;;;;;0.60;0.60;;;;;;;24.80;87.51;95732.91;5094323;28;20551;-61
2022/06/19 07:04:15;;;;;;;0.60;0.40;;;;;;;24.73;65.09;95726.47;5096413;28;20496;-60
2022/06/19 07:06:43;;;;;;;0.40;0.30;;;;;;;25.03;67.36;95728.44;5095044;28;20424;-60
2022/06/19 07:09:12;;;;;;;0.50;0.50;;;;;;;25.22;55.43;95731.22;5094280;28;20431;-60
2022/06/19 07:11:43;;;;;;;0.40;0.40;;;;;;;25.20;55.49;95730.00;5096424;28;20452;-61
2022/06/19 07:14:19;;;;;;;0.40;0.30;;;;;;;25.18;53.35;95722.22;5094872;28;20456;-61
2022/06/19 07:16:48;;;;;;;0.50;0.40;;;;;;;24.85;56.69;95572.66;5098951;28;20447;-63
2022/06/19 07:19:25;;;;;;;0.40;0.30;;;;;;;25.90;54.67;95709.09;5096754;28;20420;-63
2022/06/19 07:21:54;;;;;;;0.30;0.20;;;;;;;26.32;48.41;95709.97;5095137;28;20468;-64
2022/06/19 07:24:26;;;;;;;0.40;0.30;;;;;;;26.24;50.67;95713.69;5094933;28;20512;-66
2022/06/19 07:26:56;;;;;;;0.37;0.30;;;;;;;26.51;46.81;95711.88;5097528;28;20435;-67
2022/06/19 07:29:24;;;;;;;0.37;0.27;;;;;;;25.74;41.37;95711.06;5094349;28;20476;-67
2022/06/19 07:31:54;;;;;;;0.37;0.27;;;;;;;25.37;50.73;95712.56;5096924;28;20455;-68
2022/06/19 07:34:24;;;;;;;0.40;0.20;;;;;;;25.19;50.20;95582.72;5095173;28;20420;-67
2022/06/19 07:37:00;;;;;;;0.40;0.30;;;;;;;26.16;45.30;95684.03;5099627;28;20451;-67
2022/06/19 07:39:37;;;;;;;0.60;0.50;;;;;;;25.65;44.68;95707.78;5097569;28;20862;-67
2022/06/19 07:42:08;;;;;;;0.40;0.30;;;;;;;24.77;47.92;95621.66;5101512;28;20527;-69
2022/06/19 07:44:37;;;;;;;0.50;0.40;;;;;;;26.12;45.14;95708.41;5094478;28;20443;-68
2022/06/19 07:50:11;;;;;;;0.40;0.20;;;;;;;26.87;46.90;95703.19;5096801;28;20440;-67
2022/06/19 07:52:42;;;;;;;0.63;0.63;;;;;;;27.34;43.97;95700.03;5095705;28;20450;-66
2022/06/19 07:55:17;;;;;;;0.50;0.30;;;;;;;27.88;41.56;95694.19;5094771;28;20531;-67
2022/06/19 08:00:42;;;;;;;0.30;0.30;;;;;;;26.58;42.31;95705.75;5095989;28;20507;-68
2022/06/19 08:03:11;;;;;;;0.40;0.30;;;;;;;26.35;41.83;95703.00;5094665;28;20420;-66
2022/06/19 08:05:46;;;;;;;0.30;0.20;;;;;;;27.00;42.73;95693.69;5093046;28;20431;-65
2022/06/19 08:08:21;;;;;;;0.40;0.30;;;;;;;27.03;42.00;95692.16;5094187;28;20413;-66
2022/06/19 08:10:53;;;;;;;0.50;0.43;;;;;;;27.62;41.38;95686.88;5094799;28;20416;-66
2022/06/19 08:13:28;;;;;;;0.40;0.30;;;;;;;27.88;40.11;95686.00;5095128;28;20452;-66
2022/06/19 08:16:02;;;;;;;0.40;0.30;;;;;;;27.25;43.87;95606.97;5098143;28;20420;-66
2022/06/19 08:18:32;;;;;;;0.57;0.43;;;;;;;28.12;38.80;95655.56;5095164;28;20442;-66
2022/06/19 08:21:03;;;;;;;0.30;0.30;;;;;;;27.76;38.06;95678.06;5092613;28;20464;-68
2022/06/19 08:23:32;;;;;;;0.50;0.30;;;;;;;28.44;37.86;95680.44;5093071;28;20530;-66
2022/06/19 08:26:00;;;;;;;0.30;0.30;;;;;;;28.31;38.89;95687.31;5092412;28;20481;-66
2022/06/19 08:28:33;;;;;;;0.90;0.40;;;;;;;28.55;36.62;95681.34;5092801;28;20835;-66
2022/06/19 08:31:02;;;;;;;0.30;0.23;;;;;;;28.28;32.80;95679.91;5092469;28;20412;-65
2022/06/19 08:33:31;;;;;;;0.30;0.30;;;;;;;28.25;36.83;95675.19;5092587;28;20861;-66
2022/06/19 08:36:06;;;;;;;0.40;0.30;;;;;;;29.20;32.61;95675.28;5092705;28;20485;-64
2022/06/19 08:38:38;;;;;;;0.40;0.30;;;;;;;29.11;33.61;95672.09;5092488;28;21033;-65
2022/06/19 08:41:42;;;;;;;0.40;0.30;;;;;;;29.41;35.52;95668.03;5092274;28;20500;-64
2022/06/19 08:44:42;;;;;;;0.30;0.30;;;;;;;28.75;36.18;95669.06;5092631;28;20481;-66
2022/06/19 08:47:30;;;;;;;0.47;0.30;;;;;;;28.06;35.50;95676.13;5092336;28;20472;-66
2022/06/19 08:50:09;;;;;;;0.33;0.27;;;;;;;27.98;37.27;95679.91;5092528;28;20500;-66
2022/06/19 08:52:52;;;;;;;0.40;0.30;;;;;;;27.97;35.43;95672.91;5092007;28;20770;-66
2022/06/19 08:55:35;;;;;;;0.30;0.20;;;;;;;28.75;36.28;95674.53;5092014;28;20507;-64
2022/06/19 08:58:12;;;;;;;0.40;0.23;;;;;;;29.07;36.08;95674.03;5092083;28;20511;-62
2022/06/19 09:00:51;;;;;;;0.40;0.30;;;;;;;29.21;34.79;95674.16;5092188;28;20468;-63
2022/06/19 09:03:29;;;;;;;0.30;0.20;;;;;;;28.76;33.53;95648.84;5092291;28;20522;-63
2022/06/19 09:06:05;;;;;;;0.77;0.30;;;;;;;29.60;31.38;95669.69;5092037;28;20975;-62
2022/06/19 09:09:03;;;;;;;0.40;0.27;;;;;;;30.28;32.48;95666.09;5092370;28;20448;-62
2022/06/19 09:12:00;;;;;;;0.30;0.20;;;;;;;30.02;30.06;95656.25;5092028;28;20439;-63
2022/06/19 09:14:37;;;;;;;0.30;0.20;;;;;;;29.79;28.17;95654.97;5092323;28;20417;-64
2022/06/19 09:17:11;;;;;;;0.40;0.30;;;;;;;29.54;31.47;95643.91;5092058;28;20420;-63
2022/06/19 09:19:52;;;;;;;0.30;0.20;;;;;;;29.23;33.11;95649.97;5092023;28;20420;-63
2022/06/19 09:22:37;;;;;;;0.40;0.30;;;;;;;29.09;32.04;95606.19;5091709;28;20487;-64
2022/06/19 09:25:24;;;;;;;0.83;0.40;;;;;;;29.21;34.98;95655.03;5092235;28;20440;-65
2022/06/19 09:28:00;;;;;;;0.37;0.27;;;;;;;28.56;34.85;95622.13;5091853;28;20452;-65
2022/06/19 09:30:33;;;;;;;0.30;0.30;;;;;;;28.58;34.93;95653.31;5091704;28;20590;-65
2022/06/19 09:33:08;;;;;;;0.37;0.27;;;;;;;28.11;32.26;95579.63;5091711;28;20770;-64
2022/06/19 09:35:43;;;;;;;0.30;0.20;;;;;;;28.64;33.30;95651.06;5091856;28;20965;-64
2022/06/19 09:38:18;;;;;;;0.30;0.20;;;;;;;27.91;32.62;95613.63;5091791;28;20485;-65
2022/06/19 09:40:53;;;;;;;0.30;0.20;;;;;;;28.38;37.68;95651.97;5091629;28;20419;-65
2022/06/19 09:43:29;;;;;;;0.30;0.20;;;;;;;27.91;35.16;95646.34;5091831;28;20426;-64
2022/06/19 09:46:02;;;;;;;0.40;0.30;;;;;;;27.90;35.03;95658.41;5091742;28;20420;-65
2022/06/19 09:48:37;;;;;;;0.40;0.27;;;;;;;28.50;33.56;95651.69;5091716;28;20985;-64
2022/06/19 09:51:13;;;;;;;0.50;0.30;;;;;;;29.66;37.33;95651.78;5091657;28;20420;-63
2022/06/19 09:53:48;;;;;;;0.70;0.70;;;;;;;30.14;32.88;95649.66;5094704;28;20420;-62
2022/06/19 09:56:36;;;;;;;0.30;0.20;;;;;;;30.73;28.38;95649.00;5094241;28;20424;-63
2022/06/19 09:59:13;;;;;;;0.40;0.30;;;;;;;31.00;31.92;95645.88;5092242;28;20469;-62
2022/06/19 10:01:44;;;;;;;0.40;0.30;;;;;;;31.49;32.83;95645.06;5091952;28;20826;-62
2022/06/19 10:04:20;;;;;;;0.40;0.30;;;;;;;31.81;27.21;95577.22;5093154;28;20884;-63
2022/06/19 10:06:54;;;;;;;0.30;0.30;;;;;;;32.88;26.25;95633.78;5095821;28;20463;-62
2022/06/19 10:09:27;;;;;;;0.30;0.20;;;;;;;32.85;25.13;95545.94;5095373;28;20936;-62
2022/06/19 10:12:01;;;;;;;0.40;0.40;;;;;;;31.98;26.93;95629.25;5095272;28;20416;-63
2022/06/19 10:14:36;;;;;;;0.37;0.33;;;;;;;32.03;29.92;95620.59;5095304;28;20416;-62
2022/06/19 10:17:13;;;;;;;0.40;0.30;;;;;;;32.14;30.08;95586.84;5095252;28;20451;-62
2022/06/19 10:19:47;;;;;;;0.40;0.30;;;;;;;32.21;29.72;95559.38;5095173;28;20473;-62
2022/06/19 10:22:35;;;;;;;0.33;0.30;;;;;;;32.62;29.71;95617.91;5095121;28;20509;-62
2022/06/19 10:25:21;;;;;;;0.33;0.30;;;;;;;32.05;30.21;95614.75;5095077;28;20966;-62
2022/06/19 10:28:03;;;;;;;0.40;0.30;;;;;;;32.61;26.37;95603.41;5095013;28;20412;-62
2022/06/19 10:30:37;;;;;;;0.30;0.30;;;;;;;32.13;27.12;95610.75;5094635;28;20832;-63
2022/06/19 10:33:19;;;;;;;0.50;0.30;;;;;;;32.24;27.26;95607.94;5095246;28;20416;-62
2022/06/19 10:35:53;;;;;;;0.50;0.30;;;;;;;31.78;26.92;95610.91;5095153;28;20503;-63
2022/06/19 10:38:39;;;;;;;0.47;0.47;;;;;;;32.36;25.61;95600.03;5094942;28;20521;-62
2022/06/19 10:42:00;;;;;;;0.53;0.43;;;;;;;32.73;25.44;95596.66;5094811;28;20460;-62
2022/06/19 10:44:17;;;;;;;0.30;0.20;;;;;;;31.73;25.12;95597.59;5094743;28;20464;-63
2022/06/19 10:46:55;;;;;;;0.30;0.20;;;;;;;31.11;26.94;95598.16;5094982;28;20493;-63
2022/06/19 10:49:33;;;;;;;0.30;0.30;;;;;;;31.65;26.48;95579.66;5094798;28;20911;-63
2022/06/19 10:52:09;;;;;;;0.30;0.30;;;;;;;32.09;24.84;95590.00;5095037;28;20866;-62
2022/06/19 10:54:59;;;;;;;0.30;0.30;;;;;;;31.36;25.79;95578.94;5094173;28;20498;-62
2022/06/19 10:57:40;;;;;;;0.40;0.33;;;;;;;31.28;26.46;95580.91;5094268;28;20913;-62
2022/06/19 11:00:12;;;;;;;0.57;0.40;;;;;;;30.02;27.75;95582.44;5094419;28;20416;-63
2022/06/19 11:05:39;;;;;;;0.30;0.20;;;;;;;31.02;26.95;95573.13;5094173;28;20947;-62
2022/06/19 11:08:07;;;;;;;0.30;0.20;;;;;;;32.01;26.20;95572.81;5094502;28;20496;-62
2022/06/19 11:10:41;;;;;;;0.40;0.30;;;;;;;32.57;25.48;95569.72;5093965;28;20441;-62
2022/06/19 11:13:11;;;;;;;0.40;0.30;;;;;;;31.58;26.43;95568.69;5094064;28;20420;-62
2022/06/19 11:15:43;;;;;;;0.30;0.30;;;;;;;32.75;25.61;95547.63;5093599;28;20486;-62
2022/06/19 11:18:19;;;;;;;0.30;0.20;;;;;;;31.31;26.13;95568.38;5094292;28;20446;-62
2022/06/19 11:21:06;;;;;;;0.30;0.20;;;;;;;31.24;27.61;95541.81;5094045;28;20920;-63
2022/06/19 11:23:36;;;;;;;0.40;0.30;;;;;;;31.15;26.16;95568.81;5093792;28;20479;-62
2022/06/19 11:26:10;;;;;;;0.40;0.30;;;;;;;30.83;26.69;95559.06;5093662;28;21075;-63
2022/06/19 11:28:47;;;;;;;0.40;0.30;;;;;;;29.41;27.54;95493.25;5093402;28;20997;-63
2022/06/19 11:31:21;;;;;;;0.30;0.30;;;;;;;30.30;26.25;95564.53;5093541;28;20420;-62
2022/06/19 11:33:54;;;;;;;0.30;0.20;;;;;;;31.67;25.83;95558.09;5094124;28;20407;-62
2022/06/19 11:36:39;;;;;;;0.40;0.30;;;;;;;30.40;26.19;95564.56;5093622;28;20519;-62
2022/06/19 11:39:33;;;;;;;0.40;0.30;;;;;;;30.74;26.69;95515.66;5093494;28;20916;-62
2022/06/19 11:42:28;;;;;;;0.50;0.50;;;;;;;30.63;26.13;95556.75;5083683;28;20475;-63
2022/06/19 11:44:58;;;;;;;0.30;0.20;;;;;;;31.47;26.36;95540.56;5092672;28;20511;-63
2022/06/19 11:47:35;;;;;;;0.30;0.20;;;;;;;31.56;26.21;95519.00;5092666;28;20457;-63
2022/06/19 11:50:17;;;;;;;0.40;0.27;;;;;;;32.05;25.56;95551.66;5092688;28;20484;-63
2022/06/19 11:52:50;;;;;;;0.50;0.40;;;;;;;30.60;27.91;95545.78;5092405;28;20420;-63
2022/06/19 11:55:27;;;;;;;0.30;0.30;;;;;;;29.99;27.36;95549.63;5092421;28;20471;-64
2022/06/19 11:57:59;;;;;;;0.40;0.33;;;;;;;29.75;27.45;95482.81;5092384;28;20423;-64
2022/06/19 12:00:31;;;;;;;0.40;0.30;;;;;;;30.77;26.30;95501.19;5092479;28;20451;-64
2022/06/19 12:03:05;;;;;;;0.63;0.33;;;;;;;31.45;25.44;95535.47;5092433;28;20460;-64
2022/06/19 12:05:38;;;;;;;0.40;0.40;;;;;;;31.04;28.67;95529.75;5092397;28;20424;-64